createdAt,value
2017-08-25T00:00:39.848Z,15.79
2017-08-25T00:01:41.158Z,15.81
2017-08-25T00:02:40.859Z,15.80
2017-08-25T00:03:40.951Z,15.74
2017-08-25T00:04:41.184Z,15.70
2017-08-25T00:05:42.022Z,15.66
2017-08-25T00:06:43.050Z,15.60
2017-08-25T00:07:37.228Z,15.59
2017-08-25T00:08:38.100Z,15.55
2017-08-25T00:09:38.125Z,15.51
2017-08-25T00:10:33.174Z,15.45
2017-08-25T00:11:33.501Z,15.38
2017-08-25T00:12:27.855Z,15.32
2017-08-25T00:13:27.352Z,15.26
2017-08-25T00:14:22.311Z,15.28
2017-08-25T00:15:17.688Z,15.26
2017-08-25T00:16:17.726Z,15.19
2017-08-25T00:17:12.401Z,15.19
2017-08-25T00:18:07.788Z,15.16
2017-08-25T00:19:08.491Z,15.10
2017-08-25T00:20:08.510Z,15.06
2017-08-25T00:21:08.597Z,15.00
2017-08-25T00:22:03.636Z,15.00
2017-08-25T00:22:57.674Z,15.00
2017-08-25T00:23:59.038Z,14.96
2017-08-25T00:24:59.987Z,14.93
2017-08-25T00:25:54.904Z,14.84
2017-08-25T00:26:54.961Z,14.84
2017-08-25T00:27:54.834Z,14.80
2017-08-25T00:28:48.806Z,14.81
2017-08-25T00:29:49.154Z,14.81
2017-08-25T00:30:49.188Z,14.86
2017-08-25T00:31:44.147Z,14.90
2017-08-25T00:32:38.207Z,14.86
2017-08-25T00:33:38.227Z,14.82
2017-08-25T00:34:33.237Z,14.87
2017-08-25T00:35:28.307Z,14.82
2017-08-25T00:36:28.344Z,14.80
2017-08-25T00:37:23.415Z,14.79
2017-08-25T00:38:18.391Z,14.78
2017-08-25T00:39:18.432Z,14.73
2017-08-25T00:40:13.534Z,14.71
2017-08-25T00:41:13.763Z,14.63
2017-08-25T00:42:14.555Z,14.68
2017-08-25T00:43:08.722Z,14.63
2017-08-25T00:44:09.652Z,14.64
2017-08-25T00:45:09.706Z,14.61
2017-08-25T00:46:09.726Z,14.59
2017-08-25T00:47:05.195Z,14.59
2017-08-25T00:47:58.789Z,14.58
2017-08-25T00:48:58.817Z,14.58
2017-08-25T00:49:53.869Z,14.56
2017-08-25T00:50:53.895Z,14.60
2017-08-25T00:51:48.030Z,14.61
2017-08-25T00:52:48.283Z,14.60
2017-08-25T00:53:42.983Z,14.60
2017-08-25T00:54:38.056Z,14.60
2017-08-25T00:55:38.096Z,14.58
2017-08-25T00:56:33.071Z,14.56
2017-08-25T00:57:28.186Z,14.53
2017-08-25T00:58:29.286Z,14.50
2017-08-25T00:59:29.184Z,14.49
2017-08-25T01:00:35.317Z,14.50
2017-08-25T01:01:30.374Z,14.40
2017-08-25T01:02:25.315Z,14.48
2017-08-25T01:03:26.373Z,14.47
2017-08-25T01:04:26.539Z,14.46
2017-08-25T01:05:26.513Z,14.48
2017-08-25T01:06:21.508Z,14.42
2017-08-25T01:07:15.441Z,14.52
2017-08-25T01:08:15.541Z,14.52
2017-08-25T01:09:10.633Z,14.59
2017-08-25T01:10:10.659Z,14.62
2017-08-25T01:11:04.727Z,14.61
2017-08-25T01:12:04.639Z,14.60
2017-08-25T01:12:59.692Z,14.60
2017-08-25T01:13:54.760Z,14.62
2017-08-25T01:14:54.751Z,14.62
2017-08-25T01:15:49.888Z,14.59
2017-08-25T01:16:49.918Z,14.56
2017-08-25T01:17:49.946Z,14.56
2017-08-25T01:18:49.936Z,14.56
2017-08-25T01:19:43.992Z,14.59
2017-08-25T01:20:44.022Z,14.52
2017-08-25T01:21:39.084Z,14.44
2017-08-25T01:22:39.075Z,14.49
2017-08-25T01:23:39.116Z,14.51
2017-08-25T01:24:39.146Z,14.51
2017-08-25T01:25:33.128Z,14.49
2017-08-25T01:26:33.191Z,14.36
2017-08-25T01:27:28.200Z,14.42
2017-08-25T01:28:23.255Z,14.42
2017-08-25T01:29:24.369Z,14.38
2017-08-25T01:30:24.375Z,14.34
2017-08-25T01:31:24.388Z,14.28
2017-08-25T01:32:19.532Z,14.31
2017-08-25T01:33:19.447Z,14.24
2017-08-25T01:34:19.602Z,14.26
2017-08-25T01:35:13.474Z,14.26
2017-08-25T01:36:13.571Z,14.22
2017-08-25T01:37:08.550Z,14.22
2017-08-25T01:38:08.681Z,14.20
2017-08-25T01:39:02.756Z,14.20
2017-08-25T01:40:02.727Z,14.22
2017-08-25T01:40:57.817Z,14.18
2017-08-25T01:41:52.781Z,14.23
2017-08-25T01:42:52.841Z,14.18
2017-08-25T01:43:47.847Z,14.22
2017-08-25T01:44:42.922Z,14.22
2017-08-25T01:45:44.009Z,14.20
2017-08-25T01:46:43.947Z,14.21
2017-08-25T01:47:43.971Z,14.15
2017-08-25T01:48:39.056Z,14.13
2017-08-25T01:49:33.093Z,14.08
2017-08-25T01:50:34.121Z,14.08
2017-08-25T01:51:34.183Z,14.08
2017-08-25T01:52:34.108Z,14.06
2017-08-25T01:53:29.236Z,14.06
2017-08-25T01:54:23.216Z,14.04
2017-08-25T01:55:23.260Z,14.06
2017-08-25T01:56:18.289Z,14.00
2017-08-25T01:57:13.417Z,14.00
2017-08-25T01:58:14.377Z,13.95
2017-08-25T01:59:14.346Z,13.97
2017-08-25T02:00:14.550Z,13.94
2017-08-25T02:01:09.452Z,13.90
2017-08-25T02:02:03.663Z,13.88
2017-08-25T02:03:04.608Z,13.84
2017-08-25T02:04:04.615Z,13.85
2017-08-25T02:05:04.648Z,13.82
2017-08-25T02:05:59.681Z,13.78
2017-08-25T02:06:53.727Z,13.79
2017-08-25T02:07:53.828Z,13.81
2017-08-25T02:08:48.808Z,13.82
2017-08-25T02:09:43.859Z,13.83
2017-08-25T02:10:44.936Z,13.88
2017-08-25T02:11:44.873Z,13.90
2017-08-25T02:12:44.982Z,13.84
2017-08-25T02:13:40.103Z,13.90
2017-08-25T02:14:33.970Z,13.88
2017-08-25T02:15:34.066Z,13.96
2017-08-25T02:16:29.070Z,13.92
2017-08-25T02:17:29.037Z,13.99
2017-08-25T02:18:29.103Z,13.99
2017-08-25T02:19:29.153Z,14.03
2017-08-25T02:20:23.143Z,14.04
2017-08-25T02:21:23.245Z,14.02
2017-08-25T02:22:18.350Z,14.01
2017-08-25T02:23:24.199Z,13.99
2017-08-25T02:24:19.327Z,13.93
2017-08-25T02:25:13.408Z,13.89
2017-08-25T02:26:14.496Z,13.76
2017-08-25T02:27:09.477Z,13.83
2017-08-25T02:28:09.512Z,13.74
2017-08-25T02:29:09.653Z,13.74
2017-08-25T02:30:03.505Z,13.70
2017-08-25T02:31:03.665Z,13.64
2017-08-25T02:32:03.627Z,13.58
2017-08-25T02:32:58.717Z,13.56
2017-08-25T02:33:52.702Z,13.60
2017-08-25T02:34:52.740Z,13.67
2017-08-25T02:35:47.731Z,13.70
2017-08-25T02:36:42.850Z,13.74
2017-08-25T02:37:42.840Z,13.72
2017-08-25T02:38:37.826Z,13.74
2017-08-25T02:39:32.943Z,13.76
2017-08-25T02:40:32.876Z,13.68
2017-08-25T02:41:27.941Z,13.55
2017-08-25T02:42:23.065Z,13.52
2017-08-25T02:43:29.074Z,13.54
2017-08-25T02:44:23.067Z,13.50
2017-08-25T02:45:23.120Z,13.47
2017-08-25T02:46:18.137Z,13.45
2017-08-25T02:47:18.178Z,13.52
2017-08-25T02:48:12.175Z,13.54
2017-08-25T02:49:12.264Z,13.53
2017-08-25T02:50:07.237Z,13.46
2017-08-25T02:51:02.335Z,13.42
2017-08-25T02:52:02.290Z,13.56
2017-08-25T02:52:57.359Z,13.54
2017-08-25T02:53:52.454Z,13.52
2017-08-25T02:54:52.433Z,13.52
2017-08-25T02:55:47.447Z,13.50
2017-08-25T02:56:42.543Z,13.48
2017-08-25T02:57:43.580Z,13.53
2017-08-25T02:58:43.506Z,13.52
2017-08-25T02:59:43.626Z,13.54
2017-08-25T03:00:38.673Z,13.54
2017-08-25T03:01:32.880Z,13.45
2017-08-25T03:02:32.701Z,13.52
2017-08-25T03:03:27.763Z,13.58
2017-08-25T03:04:27.718Z,13.58
2017-08-25T03:05:21.828Z,13.61
2017-08-25T03:06:22.826Z,13.60
2017-08-25T03:07:28.880Z,13.59
2017-08-25T03:08:22.895Z,13.56
2017-08-25T03:09:22.857Z,13.54
2017-08-25T03:10:22.924Z,13.57
2017-08-25T03:11:17.961Z,13.55
2017-08-25T03:12:12.066Z,13.50
2017-08-25T03:13:12.117Z,13.49
2017-08-25T03:14:07.169Z,13.44
2017-08-25T03:15:07.211Z,13.46
2017-08-25T03:16:07.171Z,13.40
2017-08-25T03:17:07.234Z,13.42
2017-08-25T03:18:01.276Z,13.38
2017-08-25T03:19:01.280Z,13.40
2017-08-25T03:19:56.308Z,13.40
2017-08-25T03:20:51.319Z,13.36
2017-08-25T03:21:52.424Z,13.28
2017-08-25T03:22:52.445Z,13.25
2017-08-25T03:23:52.530Z,13.28
2017-08-25T03:24:47.446Z,13.28
2017-08-25T03:25:41.532Z,13.24
2017-08-25T03:26:41.630Z,13.12
2017-08-25T03:27:36.619Z,13.17
2017-08-25T03:28:36.694Z,13.14
2017-08-25T03:29:30.675Z,13.16
2017-08-25T03:30:30.639Z,13.16
2017-08-25T03:31:25.749Z,13.18
2017-08-25T03:32:20.700Z,13.22
2017-08-25T03:33:21.773Z,13.18
2017-08-25T03:34:21.809Z,13.16
2017-08-25T03:35:21.802Z,13.12
2017-08-25T03:36:21.919Z,13.08
2017-08-25T03:37:21.968Z,13.08
2017-08-25T03:38:16.964Z,13.11
2017-08-25T03:39:11.005Z,13.18
2017-08-25T03:40:10.984Z,13.22
2017-08-25T03:41:06.042Z,13.26
2017-08-25T03:42:06.105Z,13.29
2017-08-25T03:43:06.177Z,13.27
2017-08-25T03:44:06.112Z,13.29
2017-08-25T03:45:00.193Z,13.30
2017-08-25T03:46:00.147Z,13.30
2017-08-25T03:46:55.108Z,13.30
2017-08-25T03:47:50.258Z,13.30
2017-08-25T03:48:50.252Z,13.28
2017-08-25T03:49:45.344Z,13.26
2017-08-25T03:50:40.345Z,13.22
2017-08-25T03:51:40.420Z,13.22
2017-08-25T03:52:35.473Z,13.27
2017-08-25T03:53:30.494Z,13.28
2017-08-25T03:54:31.529Z,13.25
2017-08-25T03:55:31.534Z,13.20
2017-08-25T03:56:31.613Z,13.11
2017-08-25T03:57:26.614Z,13.10
2017-08-25T03:58:20.653Z,13.06
2017-08-25T03:59:20.603Z,13.08
2017-08-25T04:00:15.783Z,13.06
2017-08-25T04:01:21.746Z,13.07
2017-08-25T04:02:16.821Z,13.10
2017-08-25T04:03:10.893Z,13.13
2017-08-25T04:04:10.931Z,13.14
2017-08-25T04:05:10.902Z,13.12
2017-08-25T04:06:11.862Z,13.16
2017-08-25T04:07:07.019Z,13.19
2017-08-25T04:08:06.994Z,13.12
2017-08-25T04:09:02.077Z,13.10
2017-08-25T04:09:57.107Z,13.07
2017-08-25T04:10:57.107Z,13.06
2017-08-25T04:11:57.132Z,13.08
2017-08-25T04:12:58.226Z,13.06
2017-08-25T04:13:58.385Z,13.08
2017-08-25T04:14:53.203Z,13.10
2017-08-25T04:15:53.192Z,13.11
2017-08-25T04:16:47.363Z,13.10
2017-08-25T04:17:47.278Z,13.07
2017-08-25T04:18:42.492Z,13.02
2017-08-25T04:19:37.490Z,13.08
2017-08-25T04:20:31.441Z,13.04
2017-08-25T04:21:31.442Z,13.13
2017-08-25T04:22:26.428Z,13.10
2017-08-25T04:23:21.458Z,13.09
2017-08-25T04:24:21.585Z,13.08
2017-08-25T04:25:16.564Z,13.05
2017-08-25T04:26:11.574Z,13.10
2017-08-25T04:27:05.767Z,13.12
2017-08-25T04:28:05.733Z,13.14
2017-08-25T04:29:00.704Z,13.10
2017-08-25T04:30:00.724Z,13.15
2017-08-25T04:31:00.877Z,13.11
2017-08-25T04:32:00.781Z,13.09
2017-08-25T04:32:54.731Z,13.10
2017-08-25T04:33:54.907Z,13.10
2017-08-25T04:34:49.765Z,13.14
2017-08-25T04:35:44.810Z,13.14
2017-08-25T04:36:39.105Z,13.15
2017-08-25T04:37:39.118Z,13.16
2017-08-25T04:38:34.127Z,13.10
2017-08-25T04:39:29.132Z,13.10
2017-08-25T04:40:29.158Z,13.10
2017-08-25T04:41:24.254Z,13.12
2017-08-25T04:42:19.261Z,13.11
2017-08-25T04:43:13.270Z,13.16
2017-08-25T04:44:19.266Z,13.24
2017-08-25T04:45:13.343Z,13.29
2017-08-25T04:46:14.288Z,13.24
2017-08-25T04:47:09.364Z,13.22
2017-08-25T04:48:09.510Z,13.22
2017-08-25T04:49:09.519Z,13.20
2017-08-25T04:50:09.506Z,13.19
2017-08-25T04:51:15.502Z,13.22
2017-08-25T04:52:10.554Z,13.22
2017-08-25T04:53:04.604Z,13.28
2017-08-25T04:54:04.719Z,13.29
2017-08-25T04:54:59.632Z,13.32
2017-08-25T04:55:54.693Z,13.31
2017-08-25T04:56:55.772Z,13.39
2017-08-25T04:57:55.792Z,13.34
2017-08-25T04:58:50.798Z,13.40
2017-08-25T04:59:45.881Z,13.45
2017-08-25T05:00:46.967Z,13.50
2017-08-25T05:01:46.925Z,13.45
2017-08-25T05:02:42.019Z,13.54
2017-08-25T05:03:37.062Z,13.59
2017-08-25T05:04:37.036Z,13.57
2017-08-25T05:05:32.102Z,13.62
2017-08-25T05:06:27.119Z,13.60
2017-08-25T05:07:21.139Z,13.59
2017-08-25T05:08:21.134Z,13.62
2017-08-25T05:09:16.243Z,13.66
2017-08-25T05:10:16.245Z,13.64
2017-08-25T05:11:17.243Z,13.72
2017-08-25T05:12:11.278Z,13.74
2017-08-25T05:13:11.279Z,13.84
2017-08-25T05:14:06.400Z,13.97
2017-08-25T05:15:01.442Z,13.92
2017-08-25T05:15:55.509Z,13.93
2017-08-25T05:16:55.502Z,13.98
2017-08-25T05:17:50.530Z,14.02
2017-08-25T05:18:45.583Z,14.02
2017-08-25T05:19:45.553Z,14.03
2017-08-25T05:20:40.684Z,14.02
2017-08-25T05:21:40.640Z,14.04
2017-08-25T05:22:41.771Z,14.10
2017-08-25T05:23:42.810Z,14.06
2017-08-25T05:24:42.738Z,14.16
2017-08-25T05:25:42.713Z,14.18
2017-08-25T05:26:36.901Z,14.19
2017-08-25T05:27:36.881Z,14.22
2017-08-25T05:28:31.891Z,14.27
2017-08-25T05:29:27.014Z,14.30
2017-08-25T05:30:21.026Z,14.39
2017-08-25T05:31:21.096Z,14.54
2017-08-25T05:32:16.051Z,14.61
2017-08-25T05:33:11.053Z,14.92
2017-08-25T05:34:11.174Z,15.26
2017-08-25T05:35:06.157Z,15.38
2017-08-25T05:36:01.248Z,15.42
2017-08-25T05:36:55.300Z,15.46
2017-08-25T05:37:56.305Z,15.46
2017-08-25T05:38:56.285Z,15.42
2017-08-25T05:39:56.422Z,15.42
2017-08-25T05:40:51.386Z,15.56
2017-08-25T05:41:51.445Z,15.96
2017-08-25T05:42:51.452Z,16.21
2017-08-25T05:43:51.490Z,16.28
2017-08-25T05:44:57.630Z,16.26
2017-08-25T05:45:52.621Z,16.35
2017-08-25T05:46:52.600Z,16.11
2017-08-25T05:47:52.779Z,16.47
2017-08-25T05:48:46.647Z,16.50
2017-08-25T05:49:46.745Z,16.37
2017-08-25T05:50:41.755Z,16.36
2017-08-25T05:51:36.768Z,16.26
2017-08-25T05:52:30.919Z,16.24
2017-08-25T05:53:30.896Z,16.11
2017-08-25T05:54:25.952Z,16.10
2017-08-25T05:55:26.061Z,15.87
2017-08-25T05:56:26.114Z,15.70
2017-08-25T05:57:26.105Z,15.53
2017-08-25T05:58:20.137Z,15.54
2017-08-25T05:59:21.123Z,15.61
2017-08-25T06:00:21.252Z,15.73
2017-08-25T06:01:16.264Z,15.79
2017-08-25T06:02:11.273Z,15.78
2017-08-25T06:03:11.293Z,15.81
2017-08-25T06:04:06.402Z,15.98
2017-08-25T06:05:01.409Z,16.03
2017-08-25T06:05:55.499Z,16.04
2017-08-25T06:06:55.487Z,16.00
2017-08-25T06:07:50.470Z,15.96
2017-08-25T06:08:45.502Z,16.08
2017-08-25T06:09:46.525Z,16.23
2017-08-25T06:10:46.594Z,16.58
2017-08-25T06:11:41.400Z,16.74
2017-08-25T06:12:41.426Z,17.00
2017-08-25T06:13:42.563Z,17.26
2017-08-25T06:14:42.555Z,17.54
2017-08-25T06:15:42.530Z,17.76
2017-08-25T06:16:42.799Z,17.86
2017-08-25T06:17:42.657Z,17.86
2017-08-25T06:18:42.736Z,18.08
2017-08-25T06:19:42.745Z,18.36
2017-08-25T06:20:42.745Z,18.88
2017-08-25T06:21:42.785Z,18.95
2017-08-25T06:22:43.053Z,19.54
2017-08-25T06:23:43.161Z,20.04
2017-08-25T06:24:43.182Z,20.12
2017-08-25T06:25:43.199Z,20.66
2017-08-25T06:26:43.283Z,21.18
2017-08-25T06:27:43.377Z,21.20
2017-08-25T06:28:43.345Z,20.76
2017-08-25T06:29:43.523Z,20.60
2017-08-25T06:30:37.391Z,19.88
2017-08-25T06:31:31.412Z,19.40
2017-08-25T06:32:26.563Z,18.77
2017-08-25T06:33:15.552Z,18.41
2017-08-25T06:34:03.603Z,17.95
2017-08-25T06:34:52.714Z,17.72
2017-08-25T06:35:40.709Z,17.40
2017-08-25T06:36:28.797Z,17.27
2017-08-25T06:37:17.792Z,17.14
2017-08-25T06:38:05.807Z,16.96
2017-08-25T06:38:54.028Z,17.15
2017-08-25T06:39:42.013Z,17.16
2017-08-25T06:40:31.056Z,17.14
2017-08-25T06:41:19.155Z,17.35
2017-08-25T06:42:07.060Z,17.72
2017-08-25T06:42:56.124Z,18.24
2017-08-25T06:43:44.240Z,18.45
2017-08-25T06:44:38.294Z,17.77
2017-08-25T06:45:27.351Z,17.32
2017-08-25T06:46:21.364Z,17.36
2017-08-25T06:47:16.428Z,17.54
2017-08-25T06:48:11.414Z,16.96
2017-08-25T06:49:00.461Z,16.62
2017-08-25T06:49:48.521Z,16.44
2017-08-25T06:50:42.658Z,16.30
2017-08-25T06:51:31.932Z,16.25
2017-08-25T06:52:25.732Z,16.14
2017-08-25T06:53:19.767Z,16.00
2017-08-25T06:54:13.913Z,15.85
2017-08-25T06:55:14.823Z,15.79
2017-08-25T06:56:15.834Z,15.96
2017-08-25T06:57:10.157Z,15.93
2017-08-25T06:57:58.004Z,16.16
2017-08-25T06:58:57.989Z,16.50
2017-08-25T06:59:53.061Z,16.56
2017-08-25T07:00:48.092Z,16.54
2017-08-25T07:01:36.179Z,16.30
2017-08-25T07:02:31.895Z,15.96
2017-08-25T07:03:20.246Z,15.77
2017-08-25T07:04:14.332Z,15.63
2017-08-25T07:05:09.364Z,15.74
2017-08-25T07:06:03.490Z,15.82
2017-08-25T07:06:57.505Z,15.98
2017-08-25T07:07:57.582Z,16.20
2017-08-25T07:08:52.552Z,16.31
2017-08-25T07:09:40.574Z,16.73
2017-08-25T07:10:34.756Z,17.31
2017-08-25T07:11:22.726Z,18.08
2017-08-25T07:12:10.774Z,19.32
2017-08-25T07:13:11.846Z,19.73
2017-08-25T07:14:05.856Z,20.74
2017-08-25T07:14:59.923Z,21.35
2017-08-25T07:15:53.977Z,21.84
2017-08-25T07:16:49.003Z,21.50
2017-08-25T07:17:37.071Z,21.79
2017-08-25T07:18:26.116Z,21.79
2017-08-25T07:19:14.185Z,21.53
2017-08-25T07:20:08.213Z,21.01
2017-08-25T07:21:02.206Z,20.57
2017-08-25T07:21:56.317Z,20.17
2017-08-25T07:22:51.383Z,19.62
2017-08-25T07:23:51.437Z,19.28
2017-08-25T07:24:45.617Z,18.47
2017-08-25T07:25:39.567Z,18.07
2017-08-25T07:26:39.506Z,17.59
2017-08-25T07:27:34.620Z,16.72
2017-08-25T07:28:29.610Z,16.46
2017-08-25T07:29:17.679Z,16.26
2017-08-25T07:30:17.741Z,16.74
2017-08-25T07:31:06.881Z,16.93
2017-08-25T07:32:00.778Z,17.70
2017-08-25T07:32:49.873Z,18.04
2017-08-25T07:33:49.975Z,19.10
2017-08-25T07:34:44.045Z,19.56
2017-08-25T07:35:33.068Z,20.18
2017-08-25T07:36:27.129Z,20.33
2017-08-25T07:37:16.166Z,20.34
2017-08-25T07:38:04.188Z,20.90
2017-08-25T07:38:53.295Z,20.94
2017-08-25T07:39:53.357Z,21.97
2017-08-25T07:40:48.410Z,22.26
2017-08-25T07:41:43.504Z,22.39
2017-08-25T07:42:43.473Z,22.51
2017-08-25T07:43:31.508Z,23.12
2017-08-25T07:44:25.617Z,23.76
2017-08-25T07:45:13.708Z,23.92
2017-08-25T07:46:01.664Z,24.29
2017-08-25T07:47:01.760Z,24.15
2017-08-25T07:47:55.747Z,24.58
2017-08-25T07:48:55.799Z,24.75
2017-08-25T07:49:43.911Z,25.29
2017-08-25T07:50:33.140Z,25.40
2017-08-25T07:51:28.037Z,25.84
2017-08-25T07:52:28.106Z,26.09
2017-08-25T07:53:23.141Z,26.18
2017-08-25T07:54:12.184Z,26.15
2017-08-25T07:55:06.170Z,25.79
2017-08-25T07:55:54.302Z,25.31
2017-08-25T07:56:42.361Z,25.00
2017-08-25T07:57:36.439Z,24.89
2017-08-25T07:58:30.492Z,25.03
2017-08-25T07:59:24.596Z,24.92
2017-08-25T08:00:13.661Z,24.88
2017-08-25T08:01:02.675Z,24.50
2017-08-25T08:01:51.659Z,24.48
2017-08-25T08:02:51.780Z,24.61
2017-08-25T08:03:39.788Z,24.67
2017-08-25T08:04:34.871Z,24.65
2017-08-25T08:05:28.976Z,24.92
2017-08-25T08:06:18.501Z,25.29
2017-08-25T08:07:13.068Z,25.38
2017-08-25T08:08:07.131Z,25.52
2017-08-25T08:09:07.201Z,25.53
2017-08-25T08:10:02.274Z,25.91
2017-08-25T08:10:56.269Z,26.18
2017-08-25T08:11:51.315Z,26.13
2017-08-25T08:12:45.378Z,25.92
2017-08-25T08:13:39.492Z,26.38
2017-08-25T08:14:28.518Z,26.30
2017-08-25T08:15:22.543Z,26.12
2017-08-25T08:16:10.589Z,26.11
2017-08-25T08:17:04.676Z,26.17
2017-08-25T08:17:53.752Z,26.26
2017-08-25T08:18:47.874Z,25.71
2017-08-25T08:19:42.883Z,25.51
2017-08-25T08:20:31.015Z,25.47
2017-08-25T08:21:30.996Z,25.84
2017-08-25T08:22:20.058Z,25.92
2017-08-25T08:23:08.107Z,25.94
2017-08-25T08:24:08.138Z,26.10
2017-08-25T08:25:02.266Z,25.91
2017-08-25T08:25:50.337Z,25.79
2017-08-25T08:26:44.361Z,26.08
2017-08-25T08:27:39.424Z,26.21
2017-08-25T08:28:28.382Z,25.70
2017-08-25T08:29:28.492Z,25.44
2017-08-25T08:30:22.566Z,24.98
2017-08-25T08:31:17.616Z,25.01
2017-08-25T08:32:11.687Z,25.01
2017-08-25T08:33:05.754Z,24.64
2017-08-25T08:34:00.830Z,24.30
2017-08-25T08:34:49.835Z,23.88
2017-08-25T08:35:49.910Z,24.09
2017-08-25T08:36:38.914Z,24.31
2017-08-25T08:37:33.027Z,24.10
2017-08-25T08:38:28.143Z,24.18
2017-08-25T08:39:29.141Z,24.11
2017-08-25T08:40:29.181Z,24.44
2017-08-25T08:41:29.280Z,24.96
2017-08-25T08:42:17.466Z,25.08
2017-08-25T08:43:06.375Z,25.70
2017-08-25T08:44:00.423Z,26.42
2017-08-25T08:45:00.463Z,25.99
2017-08-25T08:45:54.596Z,26.35
2017-08-25T08:46:48.608Z,26.34
2017-08-25T08:47:37.697Z,26.67
2017-08-25T08:48:31.804Z,26.74
2017-08-25T08:49:31.818Z,26.71
2017-08-25T08:50:25.938Z,26.57
2017-08-25T08:51:14.883Z,26.08
2017-08-25T08:52:03.950Z,25.77
2017-08-25T08:52:58.130Z,25.49
2017-08-25T08:53:52.139Z,25.63
2017-08-25T08:54:41.193Z,25.81
2017-08-25T08:55:35.220Z,25.94
2017-08-25T08:56:29.334Z,26.41
2017-08-25T08:57:23.274Z,26.30
2017-08-25T08:58:12.367Z,26.71
2017-08-25T08:59:01.495Z,27.21
2017-08-25T08:59:50.593Z,27.54
2017-08-25T09:00:44.523Z,27.69
2017-08-25T09:01:39.586Z,27.67
2017-08-25T09:02:33.743Z,27.78
2017-08-25T09:03:27.803Z,27.98
2017-08-25T09:04:21.902Z,27.93
2017-08-25T09:05:16.999Z,27.67
2017-08-25T09:06:12.023Z,27.59
2017-08-25T09:07:07.033Z,27.55
2017-08-25T09:08:01.063Z,27.33
2017-08-25T09:09:01.172Z,26.84
2017-08-25T09:09:49.256Z,26.96
2017-08-25T09:10:49.413Z,27.28
2017-08-25T09:11:44.329Z,27.58
2017-08-25T09:12:39.465Z,27.73
2017-08-25T09:13:33.485Z,27.74
2017-08-25T09:14:22.644Z,27.72
2017-08-25T09:15:16.655Z,27.77
2017-08-25T09:16:10.788Z,27.52
2017-08-25T09:17:10.804Z,27.66
2017-08-25T09:17:58.920Z,27.78
2017-08-25T09:18:59.054Z,28.01
2017-08-25T09:19:53.124Z,28.26
2017-08-25T09:20:47.112Z,28.26
2017-08-25T09:21:41.260Z,28.04
2017-08-25T09:22:35.280Z,27.43
2017-08-25T09:23:29.392Z,27.23
2017-08-25T09:24:23.463Z,27.28
2017-08-25T09:25:17.458Z,26.77
2017-08-25T09:26:12.494Z,26.27
2017-08-25T09:27:06.744Z,26.20
2017-08-25T09:28:01.704Z,26.24
2017-08-25T09:28:50.773Z,26.23
2017-08-25T09:29:45.768Z,26.65
2017-08-25T09:30:39.910Z,26.17
2017-08-25T09:31:34.928Z,26.29
2017-08-25T09:32:34.980Z,26.70
2017-08-25T09:33:30.023Z,27.14
2017-08-25T09:34:19.072Z,27.48
2017-08-25T09:35:08.202Z,27.30
2017-08-25T09:36:02.217Z,27.42
2017-08-25T09:36:51.330Z,27.52
2017-08-25T09:37:45.694Z,27.37
2017-08-25T09:38:45.495Z,27.04
2017-08-25T09:39:45.553Z,27.00
2017-08-25T09:40:46.577Z,27.20
2017-08-25T09:41:35.662Z,26.90
2017-08-25T09:42:29.866Z,26.97
2017-08-25T09:43:24.889Z,27.08
2017-08-25T09:44:25.996Z,27.25
2017-08-25T09:45:21.132Z,26.97
2017-08-25T09:46:16.137Z,26.86
2017-08-25T09:47:16.082Z,26.60
2017-08-25T09:48:10.168Z,26.28
2017-08-25T09:49:04.272Z,26.06
2017-08-25T09:50:05.327Z,25.90
2017-08-25T09:50:54.380Z,25.69
2017-08-25T09:51:48.493Z,25.29
2017-08-25T09:52:37.563Z,25.52
2017-08-25T09:53:26.588Z,25.49
2017-08-25T09:54:21.671Z,25.08
2017-08-25T09:55:16.736Z,25.53
2017-08-25T09:56:05.750Z,25.75
2017-08-25T09:57:05.825Z,25.71
2017-08-25T09:58:11.842Z,25.76
2017-08-25T09:59:11.946Z,26.04
2017-08-25T10:00:06.173Z,25.96
2017-08-25T10:01:06.058Z,25.46
2017-08-25T10:02:00.196Z,25.13
2017-08-25T10:02:54.196Z,24.98
2017-08-25T10:03:43.263Z,25.21
2017-08-25T10:04:31.270Z,25.41
2017-08-25T10:05:25.383Z,25.59
2017-08-25T10:06:19.410Z,25.72
2017-08-25T10:07:19.504Z,25.82
2017-08-25T10:08:14.590Z,25.80
2017-08-25T10:09:08.548Z,25.78
2017-08-25T10:10:03.709Z,25.75
2017-08-25T10:10:59.010Z,25.84
2017-08-25T10:11:52.785Z,25.54
2017-08-25T10:12:41.883Z,24.93
2017-08-25T10:13:41.870Z,24.57
2017-08-25T10:14:36.020Z,24.22
2017-08-25T10:15:24.997Z,23.73
2017-08-25T10:16:19.449Z,23.78
2017-08-25T10:17:14.184Z,23.81
2017-08-25T10:18:03.234Z,23.92
2017-08-25T10:18:57.288Z,24.44
2017-08-25T10:19:45.438Z,25.08
2017-08-25T10:20:40.442Z,25.60
2017-08-25T10:21:29.478Z,26.21
2017-08-25T10:22:17.558Z,26.56
2017-08-25T10:23:06.649Z,26.90
2017-08-25T10:24:00.684Z,27.18
2017-08-25T10:24:49.781Z,27.52
2017-08-25T10:25:43.874Z,27.63
2017-08-25T10:26:32.960Z,27.87
2017-08-25T10:27:27.041Z,27.98
2017-08-25T10:28:27.205Z,27.98
2017-08-25T10:29:16.141Z,27.94
2017-08-25T10:30:05.331Z,27.74
2017-08-25T10:31:05.341Z,27.38
2017-08-25T10:31:54.491Z,27.43
2017-08-25T10:32:49.455Z,27.33
2017-08-25T10:33:49.576Z,27.25
2017-08-25T10:34:43.587Z,27.02
2017-08-25T10:35:37.714Z,27.39
2017-08-25T10:36:32.812Z,27.42
2017-08-25T10:37:27.877Z,27.46
2017-08-25T10:38:15.996Z,27.32
2017-08-25T10:39:11.070Z,27.40
2017-08-25T10:40:00.143Z,27.14
2017-08-25T10:40:54.155Z,27.26
2017-08-25T10:41:48.253Z,27.57
2017-08-25T10:42:42.299Z,27.60
2017-08-25T10:43:37.401Z,27.92
2017-08-25T10:44:31.535Z,28.16
2017-08-25T10:45:25.587Z,28.48
2017-08-25T10:46:20.749Z,28.66
2017-08-25T10:47:14.718Z,28.64
2017-08-25T10:48:14.965Z,28.63
2017-08-25T10:49:14.965Z,27.97
2017-08-25T10:50:09.982Z,27.97
2017-08-25T10:51:10.116Z,28.20
2017-08-25T10:51:59.122Z,28.48
2017-08-25T10:52:54.201Z,28.76
2017-08-25T10:53:48.329Z,28.67
2017-08-25T10:54:37.485Z,28.12
2017-08-25T10:55:31.462Z,28.01
2017-08-25T10:56:25.543Z,27.73
2017-08-25T10:57:19.582Z,27.23
2017-08-25T10:58:19.686Z,27.10
2017-08-25T10:59:13.937Z,26.80
2017-08-25T11:00:08.823Z,26.56
2017-08-25T11:01:02.878Z,26.04
2017-08-25T11:01:57.941Z,25.95
2017-08-25T11:02:52.026Z,25.96
2017-08-25T11:03:47.086Z,26.22
2017-08-25T11:04:48.325Z,26.66
2017-08-25T11:05:42.218Z,26.86
2017-08-25T11:06:36.160Z,27.45
2017-08-25T11:07:30.292Z,27.88
2017-08-25T11:08:18.474Z,28.43
2017-08-25T11:09:13.472Z,28.53
2017-08-25T11:10:13.568Z,28.67
2017-08-25T11:11:01.614Z,28.92
2017-08-25T11:11:50.750Z,28.94
2017-08-25T11:12:38.780Z,28.88
2017-08-25T11:13:32.884Z,29.14
2017-08-25T11:14:21.992Z,29.01
2017-08-25T11:15:17.063Z,29.22
2017-08-25T11:16:06.221Z,29.46
2017-08-25T11:17:09.220Z,29.73
2017-08-25T11:18:01.278Z,29.15
2017-08-25T11:18:50.314Z,28.69
2017-08-25T11:19:38.413Z,28.46
2017-08-25T11:20:32.561Z,28.24
2017-08-25T11:21:26.604Z,27.88
2017-08-25T11:22:20.635Z,28.06
2017-08-25T11:23:14.727Z,28.08
2017-08-25T11:24:14.930Z,28.37
2017-08-25T11:25:08.886Z,28.28
2017-08-25T11:25:56.999Z,28.22
2017-08-25T11:26:52.112Z,28.19
2017-08-25T11:27:41.153Z,28.43
2017-08-25T11:28:35.194Z,28.45
2017-08-25T11:29:23.275Z,28.73
2017-08-25T11:30:17.371Z,29.08
2017-08-25T11:31:06.559Z,29.52
2017-08-25T11:32:00.597Z,29.71
2017-08-25T11:32:49.719Z,29.53
2017-08-25T11:33:43.743Z,29.10
2017-08-25T11:34:37.837Z,28.91
2017-08-25T11:35:25.857Z,28.84
2017-08-25T11:36:21.007Z,29.18
2017-08-25T11:37:15.095Z,29.19
2017-08-25T11:38:09.124Z,29.16
2017-08-25T11:38:57.161Z,29.24
2017-08-25T11:39:46.345Z,29.17
2017-08-25T11:40:41.440Z,29.41
2017-08-25T11:41:29.798Z,29.61
2017-08-25T11:42:23.523Z,29.68
2017-08-25T11:43:23.546Z,29.99
2017-08-25T11:44:12.637Z,30.28
2017-08-25T11:45:00.753Z,30.30
2017-08-25T11:45:48.874Z,29.98
2017-08-25T11:46:42.959Z,28.93
2017-08-25T11:47:37.058Z,28.42
2017-08-25T11:48:31.123Z,28.42
2017-08-25T11:49:31.164Z,28.30
2017-08-25T11:50:32.270Z,28.41
2017-08-25T11:51:21.401Z,28.76
2017-08-25T11:52:15.933Z,29.28
2017-08-25T11:53:15.558Z,29.75
2017-08-25T11:54:15.601Z,29.99
2017-08-25T11:55:10.731Z,29.78
2017-08-25T11:55:59.752Z,29.26
2017-08-25T11:56:48.798Z,28.42
2017-08-25T11:57:43.882Z,27.26